sensor_id;sensor_type;location;lat;lon;timestamp;temperature;humidity
41304;DHT22;51002;51.462;7.218;2023-04-24T00:00:56;12.50;73.10
41304;DHT22;51002;51.462;7.218;2023-04-24T00:03:26;12.60;74.20
41304;DHT22;51002;51.462;7.218;2023-04-24T00:05:53;12.60;73.40
41304;DHT22;51002;51.462;7.218;2023-04-24T00:08:19;12.50;72.70
41304;DHT22;51002;51.462;7.218;2023-04-24T00:10:47;12.50;75.00
41304;DHT22;51002;51.462;7.218;2023-04-24T00:13:13;12.40;73.00
41304;DHT22;51002;51.462;7.218;2023-04-24T00:15:38;12.30;73.70
41304;DHT22;51002;51.462;7.218;2023-04-24T00:18:06;12.30;73.10
41304;DHT22;51002;51.462;7.218;2023-04-24T00:20:32;12.30;74.30
41304;DHT22;51002;51.462;7.218;2023-04-24T00:23:00;12.20;72.30
41304;DHT22;51002;51.462;7.218;2023-04-24T00:25:27;12.00;71.50
41304;DHT22;51002;51.462;7.218;2023-04-24T00:27:53;12.20;72.10
41304;DHT22;51002;51.462;7.218;2023-04-24T00:30:21;12.10;71.40
41304;DHT22;51002;51.462;7.218;2023-04-24T00:32:46;12.00;71.90
41304;DHT22;51002;51.462;7.218;2023-04-24T00:35:12;12.00;72.50
41304;DHT22;51002;51.462;7.218;2023-04-24T00:37:37;11.90;72.70
41304;DHT22;51002;51.462;7.218;2023-04-24T00:40:03;12.00;73.10
41304;DHT22;51002;51.462;7.218;2023-04-24T00:42:28;12.00;73.30
41304;DHT22;51002;51.462;7.218;2023-04-24T00:44:55;11.80;72.00
41304;DHT22;51002;51.462;7.218;2023-04-24T00:47:21;11.60;72.50
41304;DHT22;51002;51.462;7.218;2023-04-24T00:49:47;11.80;74.60
41304;DHT22;51002;51.462;7.218;2023-04-24T00:52:12;11.80;73.30
41304;DHT22;51002;51.462;7.218;2023-04-24T00:54:45;11.50;73.40
41304;DHT22;51002;51.462;7.218;2023-04-24T00:57:13;11.50;73.00
41304;DHT22;51002;51.462;7.218;2023-04-24T00:59:40;11.70;73.70
41304;DHT22;51002;51.462;7.218;2023-04-24T01:02:09;11.70;73.10
41304;DHT22;51002;51.462;7.218;2023-04-24T01:04:34;11.70;75.40
41304;DHT22;51002;51.462;7.218;2023-04-24T01:07:02;11.70;74.80
41304;DHT22;51002;51.462;7.218;2023-04-24T01:09:29;11.70;73.90
41304;DHT22;51002;51.462;7.218;2023-04-24T01:11:57;11.50;73.60
41304;DHT22;51002;51.462;7.218;2023-04-24T01:14:23;11.40;73.40
41304;DHT22;51002;51.462;7.218;2023-04-24T01:16:48;11.50;73.50
41304;DHT22;51002;51.462;7.218;2023-04-24T01:19:14;11.50;72.80
41304;DHT22;51002;51.462;7.218;2023-04-24T01:21:42;11.60;74.00
41304;DHT22;51002;51.462;7.218;2023-04-24T01:24:08;11.60;73.60
41304;DHT22;51002;51.462;7.218;2023-04-24T01:26:34;11.50;72.60
41304;DHT22;51002;51.462;7.218;2023-04-24T01:28:59;11.60;72.20
41304;DHT22;51002;51.462;7.218;2023-04-24T01:31:27;11.50;71.70
41304;DHT22;51002;51.462;7.218;2023-04-24T01:33:53;11.60;72.40
41304;DHT22;51002;51.462;7.218;2023-04-24T01:36:19;11.60;72.20
41304;DHT22;51002;51.462;7.218;2023-04-24T01:38:47;11.70;71.70
41304;DHT22;51002;51.462;7.218;2023-04-24T01:41:15;11.80;72.70
41304;DHT22;51002;51.462;7.218;2023-04-24T01:43:40;11.80;72.60
41304;DHT22;51002;51.462;7.218;2023-04-24T01:46:06;11.80;71.90
41304;DHT22;51002;51.462;7.218;2023-04-24T01:48:34;11.70;72.00
41304;DHT22;51002;51.462;7.218;2023-04-24T01:51:03;11.50;72.80
41304;DHT22;51002;51.462;7.218;2023-04-24T01:53:28;11.40;72.20
41304;DHT22;51002;51.462;7.218;2023-04-24T01:55:54;11.30;73.50
41304;DHT22;51002;51.462;7.218;2023-04-24T01:58:19;11.20;73.10
41304;DHT22;51002;51.462;7.218;2023-04-24T02:00:45;11.30;73.30
41304;DHT22;51002;51.462;7.218;2023-04-24T02:03:10;11.20;73.50
41304;DHT22;51002;51.462;7.218;2023-04-24T02:05:38;11.20;73.40
41304;DHT22;51002;51.462;7.218;2023-04-24T02:08:08;11.30;73.50
41304;DHT22;51002;51.462;7.218;2023-04-24T02:10:34;11.20;73.50
41304;DHT22;51002;51.462;7.218;2023-04-24T02:13:01;11.20;74.50
41304;DHT22;51002;51.462;7.218;2023-04-24T02:15:27;10.90;73.40
41304;DHT22;51002;51.462;7.218;2023-04-24T02:17:55;10.90;73.90
41304;DHT22;51002;51.462;7.218;2023-04-24T02:20:20;10.90;73.50
41304;DHT22;51002;51.462;7.218;2023-04-24T02:22:46;10.90;74.30
41304;DHT22;51002;51.462;7.218;2023-04-24T02:25:14;10.80;73.90
41304;DHT22;51002;51.462;7.218;2023-04-24T02:27:39;10.90;75.50
41304;DHT22;51002;51.462;7.218;2023-04-24T02:30:05;10.80;74.60
41304;DHT22;51002;51.462;7.218;2023-04-24T02:32:31;10.80;75.30
41304;DHT22;51002;51.462;7.218;2023-04-24T02:34:56;10.70;74.30
41304;DHT22;51002;51.462;7.218;2023-04-24T02:37:22;10.70;74.30
41304;DHT22;51002;51.462;7.218;2023-04-24T02:39:47;10.50;74.50
41304;DHT22;51002;51.462;7.218;2023-04-24T02:42:13;10.70;74.70
41304;DHT22;51002;51.462;7.218;2023-04-24T02:44:38;10.70;74.60
41304;DHT22;51002;51.462;7.218;2023-04-24T02:47:08;10.70;74.10
41304;DHT22;51002;51.462;7.218;2023-04-24T02:49:34;10.80;75.30
41304;DHT22;51002;51.462;7.218;2023-04-24T02:51:59;10.70;74.60
41304;DHT22;51002;51.462;7.218;2023-04-24T02:54:25;10.70;74.80
41304;DHT22;51002;51.462;7.218;2023-04-24T02:56:51;10.70;75.90
41304;DHT22;51002;51.462;7.218;2023-04-24T02:59:16;10.70;75.30
41304;DHT22;51002;51.462;7.218;2023-04-24T03:01:42;10.80;74.80
41304;DHT22;51002;51.462;7.218;2023-04-24T03:04:07;10.70;75.30
41304;DHT22;51002;51.462;7.218;2023-04-24T03:06:32;10.90;75.80
41304;DHT22;51002;51.462;7.218;2023-04-24T03:09:00;10.90;74.80
41304;DHT22;51002;51.462;7.218;2023-04-24T03:11:28;10.90;74.80
41304;DHT22;51002;51.462;7.218;2023-04-24T03:13:54;10.90;75.70
41304;DHT22;51002;51.462;7.218;2023-04-24T03:16:22;11.00;74.90
41304;DHT22;51002;51.462;7.218;2023-04-24T03:18:47;11.00;74.90
41304;DHT22;51002;51.462;7.218;2023-04-24T03:21:13;10.90;75.10
41304;DHT22;51002;51.462;7.218;2023-04-24T03:23:38;11.00;76.20
41304;DHT22;51002;51.462;7.218;2023-04-24T03:26:06;10.90;74.50
41304;DHT22;51002;51.462;7.218;2023-04-24T03:28:32;11.10;75.20
41304;DHT22;51002;51.462;7.218;2023-04-24T03:30:59;11.10;75.30
41304;DHT22;51002;51.462;7.218;2023-04-24T03:33:25;11.00;74.90
41304;DHT22;51002;51.462;7.218;2023-04-24T03:35:53;11.10;74.20
41304;DHT22;51002;51.462;7.218;2023-04-24T03:38:18;11.00;75.10
41304;DHT22;51002;51.462;7.218;2023-04-24T03:40:44;11.00;75.50
41304;DHT22;51002;51.462;7.218;2023-04-24T03:43:10;11.10;75.20
41304;DHT22;51002;51.462;7.218;2023-04-24T03:45:35;11.20;75.00
41304;DHT22;51002;51.462;7.218;2023-04-24T03:48:01;11.10;74.60
41304;DHT22;51002;51.462;7.218;2023-04-24T03:50:28;11.10;74.10
41304;DHT22;51002;51.462;7.218;2023-04-24T03:52:54;11.20;73.80
41304;DHT22;51002;51.462;7.218;2023-04-24T03:55:19;11.10;74.70
41304;DHT22;51002;51.462;7.218;2023-04-24T03:57:45;11.20;74.30
41304;DHT22;51002;51.462;7.218;2023-04-24T04:00:13;11.10;74.20
41304;DHT22;51002;51.462;7.218;2023-04-24T04:02:39;11.00;74.00
41304;DHT22;51002;51.462;7.218;2023-04-24T04:05:07;11.00;74.20
41304;DHT22;51002;51.462;7.218;2023-04-24T04:07:33;11.20;74.50
41304;DHT22;51002;51.462;7.218;2023-04-24T04:09:58;11.20;74.40
41304;DHT22;51002;51.462;7.218;2023-04-24T04:12:24;11.20;74.10
41304;DHT22;51002;51.462;7.218;2023-04-24T04:14:50;11.20;74.90
41304;DHT22;51002;51.462;7.218;2023-04-24T04:17:15;11.20;74.10
41304;DHT22;51002;51.462;7.218;2023-04-24T04:19:41;11.30;74.20
41304;DHT22;51002;51.462;7.218;2023-04-24T04:22:07;11.10;73.80
41304;DHT22;51002;51.462;7.218;2023-04-24T04:24:33;11.00;73.80
41304;DHT22;51002;51.462;7.218;2023-04-24T04:26:59;11.20;76.00
41304;DHT22;51002;51.462;7.218;2023-04-24T04:29:25;11.20;75.30
41304;DHT22;51002;51.462;7.218;2023-04-24T04:31:51;11.10;74.00
41304;DHT22;51002;51.462;7.218;2023-04-24T04:34:17;11.00;73.70
41304;DHT22;51002;51.462;7.218;2023-04-24T04:36:47;11.10;73.70
41304;DHT22;51002;51.462;7.218;2023-04-24T04:39:12;11.00;73.60
41304;DHT22;51002;51.462;7.218;2023-04-24T04:41:40;11.00;74.00
41304;DHT22;51002;51.462;7.218;2023-04-24T04:44:06;11.10;74.50
41304;DHT22;51002;51.462;7.218;2023-04-24T04:46:31;11.30;73.50
41304;DHT22;51002;51.462;7.218;2023-04-24T04:49:03;11.20;73.10
41304;DHT22;51002;51.462;7.218;2023-04-24T04:51:29;11.30;74.70
41304;DHT22;51002;51.462;7.218;2023-04-24T04:53:54;11.30;73.90
41304;DHT22;51002;51.462;7.218;2023-04-24T04:56:20;11.30;73.10
41304;DHT22;51002;51.462;7.218;2023-04-24T04:58:45;11.30;73.10
41304;DHT22;51002;51.462;7.218;2023-04-24T05:01:11;11.30;73.90
41304;DHT22;51002;51.462;7.218;2023-04-24T05:03:36;11.30;73.10
41304;DHT22;51002;51.462;7.218;2023-04-24T05:06:02;11.30;73.20
41304;DHT22;51002;51.462;7.218;2023-04-24T05:08:27;11.30;72.20
41304;DHT22;51002;51.462;7.218;2023-04-24T05:10:55;11.30;72.90
41304;DHT22;51002;51.462;7.218;2023-04-24T05:13:23;11.30;73.00
41304;DHT22;51002;51.462;7.218;2023-04-24T05:15:51;11.30;73.30
41304;DHT22;51002;51.462;7.218;2023-04-24T05:18:17;11.30;72.40
41304;DHT22;51002;51.462;7.218;2023-04-24T05:20:44;11.40;73.10
41304;DHT22;51002;51.462;7.218;2023-04-24T05:23:12;11.50;72.40
41304;DHT22;51002;51.462;7.218;2023-04-24T05:25:40;11.50;72.10
41304;DHT22;51002;51.462;7.218;2023-04-24T05:28:08;11.40;72.60
41304;DHT22;51002;51.462;7.218;2023-04-24T05:30:36;11.30;72.80
41304;DHT22;51002;51.462;7.218;2023-04-24T05:33:02;11.20;72.60
41304;DHT22;51002;51.462;7.218;2023-04-24T05:35:27;11.40;73.40
41304;DHT22;51002;51.462;7.218;2023-04-24T05:37:55;11.30;72.40
41304;DHT22;51002;51.462;7.218;2023-04-24T05:40:23;11.20;72.90
41304;DHT22;51002;51.462;7.218;2023-04-24T05:42:49;11.20;73.80
41304;DHT22;51002;51.462;7.218;2023-04-24T05:45:14;11.10;78.70
41304;DHT22;51002;51.462;7.218;2023-04-24T05:47:42;11.00;80.80
41304;DHT22;51002;51.462;7.218;2023-04-24T05:50:09;11.00;80.80
41304;DHT22;51002;51.462;7.218;2023-04-24T05:52:35;10.50;83.20
41304;DHT22;51002;51.462;7.218;2023-04-24T05:55:03;10.70;84.40
41304;DHT22;51002;51.462;7.218;2023-04-24T05:57:29;10.80;83.40
41304;DHT22;51002;51.462;7.218;2023-04-24T05:59:55;10.70;80.30
41304;DHT22;51002;51.462;7.218;2023-04-24T06:02:21;11.00;80.90
41304;DHT22;51002;51.462;7.218;2023-04-24T06:04:47;11.10;80.00
41304;DHT22;51002;51.462;7.218;2023-04-24T06:07:12;11.20;80.70
41304;DHT22;51002;51.462;7.218;2023-04-24T06:09:38;11.10;77.80
41304;DHT22;51002;51.462;7.218;2023-04-24T06:12:04;11.10;77.50
41304;DHT22;51002;51.462;7.218;2023-04-24T06:14:29;11.10;79.80
41304;DHT22;51002;51.462;7.218;2023-04-24T06:16:55;11.10;77.60
41304;DHT22;51002;51.462;7.218;2023-04-24T06:19:20;11.20;78.60
41304;DHT22;51002;51.462;7.218;2023-04-24T06:21:48;10.90;77.80
41304;DHT22;51002;51.462;7.218;2023-04-24T06:24:16;11.00;77.00
41304;DHT22;51002;51.462;7.218;2023-04-24T06:26:42;10.90;76.80
41304;DHT22;51002;51.462;7.218;2023-04-24T06:29:07;11.10;77.80
41304;DHT22;51002;51.462;7.218;2023-04-24T06:31:33;11.20;77.40
41304;DHT22;51002;51.462;7.218;2023-04-24T06:34:05;11.10;76.50
41304;DHT22;51002;51.462;7.218;2023-04-24T06:36:30;11.10;76.70
41304;DHT22;51002;51.462;7.218;2023-04-24T06:38:56;11.10;77.40
41304;DHT22;51002;51.462;7.218;2023-04-24T06:41:22;11.20;77.30
41304;DHT22;51002;51.462;7.218;2023-04-24T06:43:48;11.20;77.20
41304;DHT22;51002;51.462;7.218;2023-04-24T06:46:13;11.20;76.40
41304;DHT22;51002;51.462;7.218;2023-04-24T06:48:39;11.10;78.00
41304;DHT22;51002;51.462;7.218;2023-04-24T06:51:04;11.00;79.50
41304;DHT22;51002;51.462;7.218;2023-04-24T06:53:30;11.00;81.60
41304;DHT22;51002;51.462;7.218;2023-04-24T06:55:55;10.90;83.00
41304;DHT22;51002;51.462;7.218;2023-04-24T06:58:21;11.20;86.50
41304;DHT22;51002;51.462;7.218;2023-04-24T07:00:46;11.20;83.60
41304;DHT22;51002;51.462;7.218;2023-04-24T07:03:15;11.10;83.70
41304;DHT22;51002;51.462;7.218;2023-04-24T07:05:41;11.10;83.80
41304;DHT22;51002;51.462;7.218;2023-04-24T07:08:06;11.30;82.90
41304;DHT22;51002;51.462;7.218;2023-04-24T07:10:32;11.20;79.70
41304;DHT22;51002;51.462;7.218;2023-04-24T07:13:01;11.40;79.80
41304;DHT22;51002;51.462;7.218;2023-04-24T07:15:29;11.20;80.00
41304;DHT22;51002;51.462;7.218;2023-04-24T07:17:55;11.40;82.50
41304;DHT22;51002;51.462;7.218;2023-04-24T07:20:20;11.70;85.30
41304;DHT22;51002;51.462;7.218;2023-04-24T07:22:46;11.20;86.10
41304;DHT22;51002;51.462;7.218;2023-04-24T07:25:13;11.30;85.40
41304;DHT22;51002;51.462;7.218;2023-04-24T07:27:38;11.40;84.20
41304;DHT22;51002;51.462;7.218;2023-04-24T07:30:04;11.40;85.60
41304;DHT22;51002;51.462;7.218;2023-04-24T07:32:30;11.50;84.30
41304;DHT22;51002;51.462;7.218;2023-04-24T07:34:55;10.90;79.80
41304;DHT22;51002;51.462;7.218;2023-04-24T07:37:21;10.70;80.60
41304;DHT22;51002;51.462;7.218;2023-04-24T07:39:49;10.80;85.70
41304;DHT22;51002;51.462;7.218;2023-04-24T07:42:14;10.70;84.60
41304;DHT22;51002;51.462;7.218;2023-04-24T07:44:40;10.80;86.10
41304;DHT22;51002;51.462;7.218;2023-04-24T07:47:05;11.00;85.40
41304;DHT22;51002;51.462;7.218;2023-04-24T07:49:31;10.90;86.10
41304;DHT22;51002;51.462;7.218;2023-04-24T07:51:59;11.10;85.20
41304;DHT22;51002;51.462;7.218;2023-04-24T07:54:25;11.20;85.00
41304;DHT22;51002;51.462;7.218;2023-04-24T07:56:53;11.20;83.90
41304;DHT22;51002;51.462;7.218;2023-04-24T07:59:19;10.90;83.40
41304;DHT22;51002;51.462;7.218;2023-04-24T08:01:44;11.20;84.50
41304;DHT22;51002;51.462;7.218;2023-04-24T08:04:10;11.20;83.80
41304;DHT22;51002;51.462;7.218;2023-04-24T08:06:36;11.00;82.70
41304;DHT22;51002;51.462;7.218;2023-04-24T08:09:01;10.90;83.70
41304;DHT22;51002;51.462;7.218;2023-04-24T08:11:29;10.60;83.30
41304;DHT22;51002;51.462;7.218;2023-04-24T08:13:54;10.50;84.50
41304;DHT22;51002;51.462;7.218;2023-04-24T08:16:20;10.60;83.70
41304;DHT22;51002;51.462;7.218;2023-04-24T08:18:45;10.60;83.80
41304;DHT22;51002;51.462;7.218;2023-04-24T08:21:11;10.70;84.00
41304;DHT22;51002;51.462;7.218;2023-04-24T08:23:42;10.70;86.80
41304;DHT22;51002;51.462;7.218;2023-04-24T08:26:08;11.00;88.10
41304;DHT22;51002;51.462;7.218;2023-04-24T08:28:33;10.70;81.50
41304;DHT22;51002;51.462;7.218;2023-04-24T08:31:01;10.30;82.30
41304;DHT22;51002;51.462;7.218;2023-04-24T08:33:26;10.70;84.90
41304;DHT22;51002;51.462;7.218;2023-04-24T08:35:52;10.70;85.30
41304;DHT22;51002;51.462;7.218;2023-04-24T08:38:18;10.70;86.60
41304;DHT22;51002;51.462;7.218;2023-04-24T08:40:46;10.80;85.60
41304;DHT22;51002;51.462;7.218;2023-04-24T08:43:14;10.70;84.30
41304;DHT22;51002;51.462;7.218;2023-04-24T08:45:45;10.80;87.80
41304;DHT22;51002;51.462;7.218;2023-04-24T08:48:13;10.60;84.50
41304;DHT22;51002;51.462;7.218;2023-04-24T08:50:40;10.80;88.20
41304;DHT22;51002;51.462;7.218;2023-04-24T08:53:08;10.70;87.70
41304;DHT22;51002;51.462;7.218;2023-04-24T08:55:34;10.50;87.60
41304;DHT22;51002;51.462;7.218;2023-04-24T08:58:02;10.30;87.80
41304;DHT22;51002;51.462;7.218;2023-04-24T09:00:28;10.20;88.80
41304;DHT22;51002;51.462;7.218;2023-04-24T09:02:53;10.30;90.10
41304;DHT22;51002;51.462;7.218;2023-04-24T09:05:21;10.20;89.70
41304;DHT22;51002;51.462;7.218;2023-04-24T09:07:49;10.00;90.10
41304;DHT22;51002;51.462;7.218;2023-04-24T09:10:17;9.90;89.70
41304;DHT22;51002;51.462;7.218;2023-04-24T09:12:45;9.80;89.10
41304;DHT22;51002;51.462;7.218;2023-04-24T09:15:14;10.10;90.60
41304;DHT22;51002;51.462;7.218;2023-04-24T09:17:42;10.10;89.90
41304;DHT22;51002;51.462;7.218;2023-04-24T09:20:10;9.90;87.90
41304;DHT22;51002;51.462;7.218;2023-04-24T09:22:36;10.00;92.10
41304;DHT22;51002;51.462;7.218;2023-04-24T09:25:02;10.20;92.80
41304;DHT22;51002;51.462;7.218;2023-04-24T09:27:32;10.20;93.10
41304;DHT22;51002;51.462;7.218;2023-04-24T09:29:58;10.30;92.90
41304;DHT22;51002;51.462;7.218;2023-04-24T09:32:23;10.10;92.90
41304;DHT22;51002;51.462;7.218;2023-04-24T09:35:09;10.30;93.80
41304;DHT22;51002;51.462;7.218;2023-04-24T09:37:36;10.30;94.20
41304;DHT22;51002;51.462;7.218;2023-04-24T09:40:11;10.50;94.60
41304;DHT22;51002;51.462;7.218;2023-04-24T09:42:42;10.30;94.70
41304;DHT22;51002;51.462;7.218;2023-04-24T09:45:08;10.20;94.60
41304;DHT22;51002;51.462;7.218;2023-04-24T09:47:39;10.20;94.90
41304;DHT22;51002;51.462;7.218;2023-04-24T09:50:12;9.90;94.70
41304;DHT22;51002;51.462;7.218;2023-04-24T09:52:44;10.10;95.00
41304;DHT22;51002;51.462;7.218;2023-04-24T09:55:17;10.00;94.90
41304;DHT22;51002;51.462;7.218;2023-04-24T09:57:48;9.70;94.50
41304;DHT22;51002;51.462;7.218;2023-04-24T10:00:18;9.60;94.30
41304;DHT22;51002;51.462;7.218;2023-04-24T10:02:43;9.80;94.90
41304;DHT22;51002;51.462;7.218;2023-04-24T10:05:11;9.30;94.20
41304;DHT22;51002;51.462;7.218;2023-04-24T10:07:39;9.50;94.80
41304;DHT22;51002;51.462;7.218;2023-04-24T10:10:10;9.40;94.90
41304;DHT22;51002;51.462;7.218;2023-04-24T10:12:36;9.80;95.30
41304;DHT22;51002;51.462;7.218;2023-04-24T10:15:04;9.60;95.50
41304;DHT22;51002;51.462;7.218;2023-04-24T10:17:31;9.70;95.60
41304;DHT22;51002;51.462;7.218;2023-04-24T10:19:57;9.30;95.00
41304;DHT22;51002;51.462;7.218;2023-04-24T10:22:27;9.30;95.20
41304;DHT22;51002;51.462;7.218;2023-04-24T10:24:56;9.50;95.40
41304;DHT22;51002;51.462;7.218;2023-04-24T10:27:22;9.30;95.50
41304;DHT22;51002;51.462;7.218;2023-04-24T10:29:48;9.40;95.60
41304;DHT22;51002;51.462;7.218;2023-04-24T10:32:15;9.70;95.60
41304;DHT22;51002;51.462;7.218;2023-04-24T10:34:40;9.70;95.50
41304;DHT22;51002;51.462;7.218;2023-04-24T10:37:06;9.90;95.60
41304;DHT22;51002;51.462;7.218;2023-04-24T10:39:32;9.80;95.50
41304;DHT22;51002;51.462;7.218;2023-04-24T10:41:58;10.00;95.70
41304;DHT22;51002;51.462;7.218;2023-04-24T10:44:27;9.70;95.20
41304;DHT22;51002;51.462;7.218;2023-04-24T10:47:01;9.80;95.40
41304;DHT22;51002;51.462;7.218;2023-04-24T10:49:30;10.00;95.70
41304;DHT22;51002;51.462;7.218;2023-04-24T10:51:59;9.80;95.50
41304;DHT22;51002;51.462;7.218;2023-04-24T10:54:41;9.40;95.40
41304;DHT22;51002;51.462;7.218;2023-04-24T10:59:48;9.90;95.80
41304;DHT22;51002;51.462;7.218;2023-04-24T11:02:17;9.90;95.70
41304;DHT22;51002;51.462;7.218;2023-04-24T11:04:43;9.90;95.80
41304;DHT22;51002;51.462;7.218;2023-04-24T11:07:09;10.00;95.90
41304;DHT22;51002;51.462;7.218;2023-04-24T11:09:37;10.00;95.80
41304;DHT22;51002;51.462;7.218;2023-04-24T11:12:07;10.00;95.80
41304;DHT22;51002;51.462;7.218;2023-04-24T11:15:07;9.90;95.70
41304;DHT22;51002;51.462;7.218;2023-04-24T11:17:29;10.00;95.80
41304;DHT22;51002;51.462;7.218;2023-04-24T11:20:00;10.30;95.80
41304;DHT22;51002;51.462;7.218;2023-04-24T11:22:28;10.30;95.70
41304;DHT22;51002;51.462;7.218;2023-04-24T11:24:54;10.00;95.60
41304;DHT22;51002;51.462;7.218;2023-04-24T11:27:22;10.20;95.80
41304;DHT22;51002;51.462;7.218;2023-04-24T11:34:46;10.00;95.60
41304;DHT22;51002;51.462;7.218;2023-04-24T11:37:13;10.20;95.70
41304;DHT22;51002;51.462;7.218;2023-04-24T11:39:38;10.20;95.50
41304;DHT22;51002;51.462;7.218;2023-04-24T11:42:04;10.60;95.70
41304;DHT22;51002;51.462;7.218;2023-04-24T11:44:34;10.30;95.10
41304;DHT22;51002;51.462;7.218;2023-04-24T11:47:00;10.40;95.40
41304;DHT22;51002;51.462;7.218;2023-04-24T11:49:25;10.50;95.60
41304;DHT22;51002;51.462;7.218;2023-04-24T11:51:56;10.50;95.60
41304;DHT22;51002;51.462;7.218;2023-04-24T11:54:22;10.40;95.40
41304;DHT22;51002;51.462;7.218;2023-04-24T11:56:47;10.30;95.40
41304;DHT22;51002;51.462;7.218;2023-04-24T11:59:14;10.50;95.60
41304;DHT22;51002;51.462;7.218;2023-04-24T12:01:45;10.20;95.10
41304;DHT22;51002;51.462;7.218;2023-04-24T12:04:11;10.00;95.20
41304;DHT22;51002;51.462;7.218;2023-04-24T12:06:37;10.10;95.10
41304;DHT22;51002;51.462;7.218;2023-04-24T12:09:05;10.20;95.00
41304;DHT22;51002;51.462;7.218;2023-04-24T12:11:31;10.20;95.00
41304;DHT22;51002;51.462;7.218;2023-04-24T12:13:57;10.20;94.80
41304;DHT22;51002;51.462;7.218;2023-04-24T12:16:27;10.00;94.20
41304;DHT22;51002;51.462;7.218;2023-04-24T12:18:53;10.60;95.10
41304;DHT22;51002;51.462;7.218;2023-04-24T12:21:19;10.70;95.30
41304;DHT22;51002;51.462;7.218;2023-04-24T12:23:45;11.00;95.30
41304;DHT22;51002;51.462;7.218;2023-04-24T12:26:11;11.20;95.30
41304;DHT22;51002;51.462;7.218;2023-04-24T12:28:37;11.20;95.00
41304;DHT22;51002;51.462;7.218;2023-04-24T12:31:03;11.50;95.50
41304;DHT22;51002;51.462;7.218;2023-04-24T12:33:32;11.60;95.60
41304;DHT22;51002;51.462;7.218;2023-04-24T12:36:00;11.60;95.50
41304;DHT22;51002;51.462;7.218;2023-04-24T12:38:28;11.60;95.30
41304;DHT22;51002;51.462;7.218;2023-04-24T12:41:16;11.30;95.10
41304;DHT22;51002;51.462;7.218;2023-04-24T12:43:52;11.20;95.20
41304;DHT22;51002;51.462;7.218;2023-04-24T12:46:20;11.20;95.00
41304;DHT22;51002;51.462;7.218;2023-04-24T12:48:46;11.20;95.00
41304;DHT22;51002;51.462;7.218;2023-04-24T12:51:14;11.00;94.40
41304;DHT22;51002;51.462;7.218;2023-04-24T12:53:41;11.20;94.80
41304;DHT22;51002;51.462;7.218;2023-04-24T12:56:07;10.80;93.70
41304;DHT22;51002;51.462;7.218;2023-04-24T12:58:32;10.80;94.50
41304;DHT22;51002;51.462;7.218;2023-04-24T13:01:00;10.50;88.90
41304;DHT22;51002;51.462;7.218;2023-04-24T13:03:28;10.60;91.10
41304;DHT22;51002;51.462;7.218;2023-04-24T13:05:53;10.50;83.00
41304;DHT22;51002;51.462;7.218;2023-04-24T13:08:21;10.80;86.70
41304;DHT22;51002;51.462;7.218;2023-04-24T13:10:47;10.80;77.20
41304;DHT22;51002;51.462;7.218;2023-04-24T13:13:12;11.30;82.80
41304;DHT22;51002;51.462;7.218;2023-04-24T13:15:38;11.30;80.70
41304;DHT22;51002;51.462;7.218;2023-04-24T13:18:06;11.70;79.60
41304;DHT22;51002;51.462;7.218;2023-04-24T13:20:31;11.80;77.60
41304;DHT22;51002;51.462;7.218;2023-04-24T13:23:00;11.90;76.20
41304;DHT22;51002;51.462;7.218;2023-04-24T13:25:35;12.10;75.20
41304;DHT22;51002;51.462;7.218;2023-04-24T13:28:02;12.10;76.80
41304;DHT22;51002;51.462;7.218;2023-04-24T13:30:33;12.00;72.10
41304;DHT22;51002;51.462;7.218;2023-04-24T13:32:58;12.20;76.80
41304;DHT22;51002;51.462;7.218;2023-04-24T13:35:26;12.10;73.20
41304;DHT22;51002;51.462;7.218;2023-04-24T13:37:51;12.00;73.30
41304;DHT22;51002;51.462;7.218;2023-04-24T13:40:19;12.00;72.20
41304;DHT22;51002;51.462;7.218;2023-04-24T13:42:45;11.90;73.50
41304;DHT22;51002;51.462;7.218;2023-04-24T13:45:13;12.00;74.60
41304;DHT22;51002;51.462;7.218;2023-04-24T13:47:38;12.20;73.60
41304;DHT22;51002;51.462;7.218;2023-04-24T13:50:06;12.30;74.00
41304;DHT22;51002;51.462;7.218;2023-04-24T13:52:35;12.30;73.20
41304;DHT22;51002;51.462;7.218;2023-04-24T13:55:00;12.40;72.00
41304;DHT22;51002;51.462;7.218;2023-04-24T13:57:26;12.50;72.60
41304;DHT22;51002;51.462;7.218;2023-04-24T13:59:52;12.50;71.30
41304;DHT22;51002;51.462;7.218;2023-04-24T14:02:18;12.30;69.70
41304;DHT22;51002;51.462;7.218;2023-04-24T14:04:43;12.30;71.70
41304;DHT22;51002;51.462;7.218;2023-04-24T14:07:09;12.10;69.60
41304;DHT22;51002;51.462;7.218;2023-04-24T14:09:34;12.20;70.00
41304;DHT22;51002;51.462;7.218;2023-04-24T14:12:02;12.50;71.80
41304;DHT22;51002;51.462;7.218;2023-04-24T14:14:31;12.30;67.90
41304;DHT22;51002;51.462;7.218;2023-04-24T14:16:58;12.30;68.20
41304;DHT22;51002;51.462;7.218;2023-04-24T14:19:24;12.40;66.30
41304;DHT22;51002;51.462;7.218;2023-04-24T14:21:52;12.30;65.70
41304;DHT22;51002;51.462;7.218;2023-04-24T14:24:18;12.20;64.90
41304;DHT22;51002;51.462;7.218;2023-04-24T14:26:46;12.40;68.60
41304;DHT22;51002;51.462;7.218;2023-04-24T14:29:13;12.50;66.70
41304;DHT22;51002;51.462;7.218;2023-04-24T14:31:39;12.60;67.80
41304;DHT22;51002;51.462;7.218;2023-04-24T14:34:05;12.80;70.90
41304;DHT22;51002;51.462;7.218;2023-04-24T14:36:30;13.00;71.90
41304;DHT22;51002;51.462;7.218;2023-04-24T14:38:58;12.70;67.60
41304;DHT22;51002;51.462;7.218;2023-04-24T14:41:31;12.60;66.60
41304;DHT22;51002;51.462;7.218;2023-04-24T14:43:56;12.20;66.10
41304;DHT22;51002;51.462;7.218;2023-04-24T14:46:24;12.40;66.30
41304;DHT22;51002;51.462;7.218;2023-04-24T14:48:50;12.50;66.40
41304;DHT22;51002;51.462;7.218;2023-04-24T14:51:16;12.30;65.90
41304;DHT22;51002;51.462;7.218;2023-04-24T14:53:43;12.30;68.70
41304;DHT22;51002;51.462;7.218;2023-04-24T14:56:15;12.20;64.90
41304;DHT22;51002;51.462;7.218;2023-04-24T14:58:41;12.20;67.30
41304;DHT22;51002;51.462;7.218;2023-04-24T15:01:06;12.20;64.90
41304;DHT22;51002;51.462;7.218;2023-04-24T15:03:32;12.10;67.00
41304;DHT22;51002;51.462;7.218;2023-04-24T15:05:57;11.90;67.20
41304;DHT22;51002;51.462;7.218;2023-04-24T15:08:26;12.00;72.70
41304;DHT22;51002;51.462;7.218;2023-04-24T15:10:51;11.70;72.80
41304;DHT22;51002;51.462;7.218;2023-04-24T15:13:17;11.50;72.50
41304;DHT22;51002;51.462;7.218;2023-04-24T15:15:42;11.40;75.40
41304;DHT22;51002;51.462;7.218;2023-04-24T15:18:10;11.40;74.10
41304;DHT22;51002;51.462;7.218;2023-04-24T15:20:38;11.50;78.40
41304;DHT22;51002;51.462;7.218;2023-04-24T15:23:10;11.70;80.80
41304;DHT22;51002;51.462;7.218;2023-04-24T15:25:38;11.50;77.90
41304;DHT22;51002;51.462;7.218;2023-04-24T15:28:04;11.50;79.00
41304;DHT22;51002;51.462;7.218;2023-04-24T15:30:30;11.80;78.00
41304;DHT22;51002;51.462;7.218;2023-04-24T15:32:59;11.60;77.70
41304;DHT22;51002;51.462;7.218;2023-04-24T15:35:24;11.50;78.10
41304;DHT22;51002;51.462;7.218;2023-04-24T15:37:52;11.70;77.60